createdAt,value
2018-08-16T00:01:49.797Z,72.87
2018-08-16T00:04:18.761Z,72.65
2018-08-16T00:06:50.194Z,72.61
2018-08-16T00:09:19.106Z,72.76
2018-08-16T00:11:48.138Z,73.35
2018-08-16T00:14:16.980Z,73.32
2018-08-16T00:16:45.945Z,73.13
2018-08-16T00:19:14.872Z,73.16
2018-08-16T00:21:45.527Z,73.32
2018-08-16T00:24:14.530Z,73.14
2018-08-16T00:26:43.453Z,73.29
2018-08-16T00:29:12.388Z,73.28
2018-08-16T00:31:41.273Z,71.71
2018-08-16T00:34:10.326Z,72.12
2018-08-16T00:36:39.234Z,72.47
2018-08-16T00:39:08.764Z,72.60
2018-08-16T00:41:37.653Z,72.80
2018-08-16T00:44:06.575Z,72.88
2018-08-16T00:46:35.500Z,72.67
2018-08-16T00:49:04.490Z,72.52
2018-08-16T00:51:33.413Z,72.53
2018-08-16T00:54:02.320Z,72.60
2018-08-16T00:56:31.292Z,73.39
2018-08-16T00:59:00.341Z,72.74
2018-08-16T01:01:29.246Z,71.47
2018-08-16T01:03:58.189Z,72.06
2018-08-16T01:06:27.158Z,72.18
2018-08-16T01:08:56.059Z,72.26
2018-08-16T01:11:24.948Z,72.40
2018-08-16T01:13:53.880Z,72.54
2018-08-16T01:16:22.793Z,72.43
2018-08-16T01:18:51.740Z,73.23
2018-08-16T01:21:20.696Z,73.25
2018-08-16T01:23:49.635Z,73.57
2018-08-16T01:26:18.525Z,72.19
2018-08-16T01:28:47.479Z,73.19
2018-08-16T01:31:16.412Z,73.06
2018-08-16T01:33:45.268Z,71.56
2018-08-16T01:36:14.142Z,73.16
2018-08-16T01:38:43.033Z,73.26
2018-08-16T01:41:11.954Z,73.00
2018-08-16T01:43:40.829Z,73.94
2018-08-16T01:46:11.960Z,73.58
2018-08-16T01:48:40.950Z,73.93
2018-08-16T01:51:09.888Z,72.34
2018-08-16T01:53:38.787Z,73.26
2018-08-16T01:56:07.769Z,73.18
2018-08-16T01:58:39.355Z,73.64
2018-08-16T02:01:08.120Z,73.73
2018-08-16T02:03:37.007Z,73.66
2018-08-16T02:06:05.993Z,73.48
2018-08-16T02:08:36.680Z,73.97
2018-08-16T02:11:03.988Z,73.84
2018-08-16T02:13:32.878Z,74.10
2018-08-16T02:16:01.784Z,74.37
2018-08-16T02:18:30.896Z,74.76
2018-08-16T02:20:59.856Z,74.74
2018-08-16T02:23:28.842Z,74.71
2018-08-16T02:26:00.148Z,74.83
2018-08-16T02:28:29.138Z,74.49
2018-08-16T02:30:58.054Z,75.11
2018-08-16T02:33:27.073Z,74.79
2018-08-16T02:35:55.966Z,75.16
2018-08-16T02:38:24.896Z,73.66
2018-08-16T02:40:53.778Z,74.49
2018-08-16T02:43:22.668Z,74.65
2018-08-16T02:45:54.338Z,74.44
2018-08-16T02:48:25.177Z,74.49
2018-08-16T02:50:54.236Z,74.51
2018-08-16T02:53:23.078Z,74.88
2018-08-16T02:55:52.037Z,74.76
2018-08-16T02:58:26.152Z,73.56
2018-08-16T03:00:54.989Z,73.15
2018-08-16T03:03:23.908Z,74.71
2018-08-16T03:05:52.983Z,74.45
2018-08-16T03:08:21.922Z,74.27
2018-08-16T03:10:50.869Z,74.46
2018-08-16T03:13:20.050Z,74.75
2018-08-16T03:15:48.841Z,74.88
2018-08-16T03:18:19.792Z,74.87
2018-08-16T03:20:48.828Z,74.79
2018-08-16T03:23:17.774Z,75.23
2018-08-16T03:25:46.728Z,74.37
2018-08-16T03:28:15.569Z,75.23
2018-08-16T03:30:47.043Z,75.73
2018-08-16T03:33:16.037Z,76.52
2018-08-16T03:35:45.059Z,75.91
2018-08-16T03:38:14.004Z,75.66
2018-08-16T03:40:42.909Z,76.06
2018-08-16T03:43:14.397Z,75.90
2018-08-16T03:45:43.426Z,75.78
2018-08-16T03:48:12.302Z,75.74
2018-08-16T03:50:41.199Z,76.08
2018-08-16T03:53:12.037Z,75.87
2018-08-16T03:55:40.989Z,76.20
2018-08-16T03:58:09.968Z,76.39
2018-08-16T04:00:38.929Z,76.69
2018-08-16T04:03:07.863Z,76.63
2018-08-16T04:05:36.726Z,76.64
2018-08-16T04:08:05.738Z,76.59
2018-08-16T04:10:36.608Z,76.75
2018-08-16T04:13:08.484Z,76.62
2018-08-16T04:15:37.430Z,77.12
2018-08-16T04:18:08.391Z,75.30
2018-08-16T04:20:37.709Z,76.56
2018-08-16T04:23:06.586Z,76.33
2018-08-16T04:25:35.563Z,76.63
2018-08-16T04:28:06.480Z,76.60
2018-08-16T04:30:35.426Z,76.68
2018-08-16T04:33:04.556Z,76.86
2018-08-16T04:35:33.507Z,77.11
2018-08-16T04:38:02.461Z,76.66
2018-08-16T04:40:31.339Z,76.61
2018-08-16T04:43:00.285Z,76.65
2018-08-16T04:45:31.517Z,76.70
2018-08-16T04:48:00.441Z,76.83
2018-08-16T04:50:29.363Z,76.41
2018-08-16T04:52:58.259Z,76.48
2018-08-16T04:55:27.236Z,76.35
2018-08-16T04:57:56.154Z,77.03
2018-08-16T05:00:25.069Z,76.90
2018-08-16T05:02:56.031Z,76.54
2018-08-16T05:05:22.821Z,76.23
2018-08-16T05:07:51.700Z,76.01
2018-08-16T05:10:20.606Z,76.36
2018-08-16T05:12:49.567Z,76.04
2018-08-16T05:15:18.386Z,76.48
2018-08-16T05:17:47.376Z,76.60
2018-08-16T05:20:19.015Z,76.31
2018-08-16T05:22:50.316Z,76.56
2018-08-16T05:25:19.156Z,76.25
2018-08-16T05:27:48.119Z,76.05
2018-08-16T05:30:17.137Z,76.40
2018-08-16T05:32:46.112Z,76.09
2018-08-16T05:35:15.207Z,75.92
2018-08-16T05:37:44.129Z,76.09
2018-08-16T05:40:13.003Z,75.71
2018-08-16T05:42:42.852Z,76.37
2018-08-16T05:45:12.160Z,75.75
2018-08-16T05:47:41.147Z,75.48
2018-08-16T05:50:11.955Z,76.10
2018-08-16T05:52:41.425Z,76.33
2018-08-16T05:55:10.379Z,75.78
2018-08-16T05:57:39.599Z,75.93
2018-08-16T06:00:16.460Z,75.54
2018-08-16T06:02:45.442Z,75.19
2018-08-16T06:05:14.387Z,75.19
2018-08-16T06:07:43.457Z,75.08
2018-08-16T06:10:12.384Z,74.46
2018-08-16T06:12:41.411Z,74.42
2018-08-16T06:15:10.638Z,74.14
2018-08-16T06:17:39.566Z,73.34
2018-08-16T06:20:10.268Z,72.64
2018-08-16T06:22:41.654Z,72.59
2018-08-16T06:25:12.771Z,72.23
2018-08-16T06:27:42.178Z,72.22
2018-08-16T06:30:20.674Z,72.54
2018-08-16T06:32:49.561Z,71.14
2018-08-16T06:35:18.446Z,66.68
2018-08-16T06:37:47.322Z,64.73
2018-08-16T06:40:17.376Z,68.25
2018-08-16T06:42:47.407Z,67.69
2018-08-16T06:45:16.306Z,68.47
2018-08-16T06:47:45.209Z,68.25
2018-08-16T06:50:14.114Z,68.64
2018-08-16T06:52:43.194Z,67.08
2018-08-16T06:55:12.053Z,68.07
2018-08-16T06:57:40.918Z,67.00
2018-08-16T07:00:09.852Z,67.85
2018-08-16T07:02:38.715Z,67.96
2018-08-16T07:05:07.943Z,66.52
2018-08-16T07:07:37.196Z,60.24
2018-08-16T07:10:07.899Z,52.47
2018-08-16T07:12:37.129Z,47.88
2018-08-16T07:15:08.478Z,49.83
2018-08-16T07:17:37.396Z,44.79
2018-08-16T07:20:06.913Z,43.07
2018-08-16T07:22:35.880Z,39.97
2018-08-16T07:25:05.203Z,40.70
2018-08-16T07:27:34.148Z,38.05
2018-08-16T07:30:03.204Z,37.89
2018-08-16T07:32:34.341Z,36.35
2018-08-16T07:35:03.570Z,36.45
2018-08-16T07:37:32.425Z,34.90
2018-08-16T07:40:03.648Z,32.94
2018-08-16T07:42:37.148Z,31.90
2018-08-16T07:45:07.820Z,35.01
2018-08-16T07:47:36.869Z,37.03
2018-08-16T07:50:07.204Z,31.89
2018-08-16T07:52:36.138Z,31.84
2018-08-16T07:55:05.304Z,31.35
2018-08-16T07:57:34.222Z,31.20
2018-08-16T08:00:03.579Z,29.98
2018-08-16T08:02:32.462Z,30.32
2018-08-16T08:05:01.346Z,30.62
2018-08-16T08:07:30.249Z,29.42
2018-08-16T08:09:59.093Z,31.51
2018-08-16T08:12:28.042Z,29.11
2018-08-16T08:14:56.929Z,31.79
2018-08-16T08:17:25.823Z,35.36
2018-08-16T08:19:54.689Z,34.29
2018-08-16T08:22:23.601Z,32.54
2018-08-16T08:24:55.573Z,32.07
2018-08-16T08:27:24.466Z,31.03
2018-08-16T08:29:55.893Z,30.64
2018-08-16T08:32:25.423Z,32.27
2018-08-16T08:34:54.280Z,35.94
2018-08-16T08:40:46.434Z,38.51
2018-08-16T08:43:51.882Z,40.02
2018-08-16T08:46:20.737Z,42.61
2018-08-16T08:48:49.570Z,38.73
2018-08-16T08:51:18.417Z,36.81
2018-08-16T08:54:51.373Z,37.04
2018-08-16T08:57:56.617Z,36.69
2018-08-16T09:00:25.511Z,37.83
2018-08-16T09:02:54.985Z,39.99
2018-08-16T09:05:23.905Z,37.27
2018-08-16T09:07:55.108Z,39.97
2018-08-16T09:11:02.846Z,40.38
2018-08-16T09:14:08.923Z,37.01
2018-08-16T09:16:39.253Z,40.07
2018-08-16T09:19:09.211Z,42.93
2018-08-16T09:21:38.212Z,42.34
2018-08-16T09:24:07.289Z,40.66
2018-08-16T09:26:40.274Z,42.71
2018-08-16T09:29:49.923Z,41.33
2018-08-16T09:32:55.353Z,40.65
2018-08-16T09:35:24.772Z,40.59
2018-08-16T09:37:53.995Z,40.17
2018-08-16T09:40:23.228Z,42.03
2018-08-16T09:42:52.239Z,38.67
2018-08-16T09:46:11.347Z,36.46
2018-08-16T09:48:43.948Z,39.79
2018-08-16T09:51:19.173Z,41.00
2018-08-16T09:53:48.099Z,42.42
2018-08-16T09:56:16.933Z,43.46
2018-08-16T09:58:45.797Z,43.74
2018-08-16T10:01:14.620Z,43.75
2018-08-16T10:03:43.540Z,44.46
2018-08-16T10:06:12.509Z,44.32
2018-08-16T10:08:41.467Z,43.62
2018-08-16T10:11:10.580Z,45.48
2018-08-16T10:13:55.354Z,46.15
2018-08-16T10:16:24.300Z,47.37
2018-08-16T10:18:53.249Z,47.09
2018-08-16T10:21:22.047Z,48.90
2018-08-16T10:23:50.908Z,49.56
2018-08-16T10:26:19.747Z,48.54
2018-08-16T10:28:48.573Z,47.74
2018-08-16T10:31:17.417Z,48.29
2018-08-16T10:33:46.248Z,49.01
2018-08-16T10:36:15.155Z,48.32
2018-08-16T10:38:43.915Z,46.68
2018-08-16T10:41:12.819Z,48.13
2018-08-16T10:43:41.671Z,48.42
2018-08-16T10:46:10.508Z,48.44
2018-08-16T10:48:39.354Z,48.69
2018-08-16T10:51:08.211Z,49.05
2018-08-16T10:53:37.135Z,49.87
2018-08-16T10:56:06.067Z,50.86
2018-08-16T10:58:34.932Z,50.38
2018-08-16T11:01:03.750Z,51.18
2018-08-16T11:03:32.629Z,49.90
2018-08-16T11:06:01.487Z,50.63
2018-08-16T11:08:30.315Z,51.08
2018-08-16T11:10:59.182Z,51.42
2018-08-16T11:13:28.022Z,50.49
2018-08-16T11:15:56.882Z,49.73
2018-08-16T11:18:25.740Z,50.35
2018-08-16T11:20:54.631Z,51.01
2018-08-16T11:23:23.503Z,50.50
2018-08-16T11:25:52.342Z,48.83
2018-08-16T11:28:21.208Z,49.73
2018-08-16T11:30:50.136Z,50.00
2018-08-16T11:33:19.082Z,47.83
2018-08-16T11:35:48.065Z,49.20
2018-08-16T11:38:16.849Z,49.10
2018-08-16T11:40:45.923Z,49.08
2018-08-16T11:43:17.963Z,49.89
2018-08-16T11:45:47.029Z,50.21
2018-08-16T11:48:23.512Z,49.32
2018-08-16T11:50:52.423Z,48.19
2018-08-16T11:53:21.253Z,49.13
2018-08-16T11:55:50.192Z,49.28
2018-08-16T11:58:19.131Z,48.15
2018-08-16T12:00:47.996Z,48.14
2018-08-16T12:03:16.842Z,48.46
2018-08-16T12:05:46.046Z,47.25
2018-08-16T12:08:15.056Z,46.15
2018-08-16T12:10:44.220Z,46.36
2018-08-16T12:13:13.297Z,45.87
2018-08-16T12:15:42.617Z,45.66
2018-08-16T12:18:11.639Z,45.80
2018-08-16T12:20:40.674Z,45.54
2018-08-16T12:23:09.737Z,45.54
2018-08-16T12:25:38.717Z,45.45
2018-08-16T12:28:10.777Z,45.96
2018-08-16T12:30:51.197Z,46.81
2018-08-16T12:33:19.892Z,47.61
2018-08-16T12:35:48.737Z,47.27
2018-08-16T12:38:17.687Z,46.32
2018-08-16T12:40:46.632Z,47.64
2018-08-16T12:43:15.604Z,47.52
2018-08-16T12:45:44.516Z,46.52
2018-08-16T12:48:13.386Z,45.86
2018-08-16T12:50:42.361Z,47.01
2018-08-16T12:53:11.212Z,45.42
2018-08-16T12:55:40.055Z,45.79
2018-08-16T12:58:08.899Z,45.50
2018-08-16T13:00:37.750Z,46.04
2018-08-16T13:03:06.684Z,46.08
2018-08-16T13:05:35.683Z,45.88
2018-08-16T13:08:04.487Z,45.53
2018-08-16T13:10:33.424Z,45.28
2018-08-16T13:13:02.324Z,46.04
2018-08-16T13:15:32.867Z,46.38
2018-08-16T13:18:00.419Z,45.35
2018-08-16T13:20:31.757Z,44.45
2018-08-16T13:23:02.959Z,44.59
2018-08-16T13:25:36.595Z,44.23
2018-08-16T13:28:05.459Z,44.31
2018-08-16T13:30:34.306Z,43.89
2018-08-16T13:33:03.121Z,43.84
2018-08-16T13:35:33.728Z,43.28
2018-08-16T13:38:00.914Z,43.21
2018-08-16T13:40:30.207Z,43.43
2018-08-16T13:42:59.155Z,43.65
2018-08-16T13:45:28.134Z,43.41
2018-08-16T13:47:56.879Z,43.10
2018-08-16T13:50:25.783Z,42.89
2018-08-16T13:52:54.615Z,43.02
2018-08-16T13:55:23.513Z,43.46
2018-08-16T13:57:52.472Z,42.33
2018-08-16T14:00:21.403Z,42.45
2018-08-16T14:02:57.610Z,42.75
2018-08-16T14:08:02.651Z,42.27
2018-08-16T14:10:37.707Z,43.04
2018-08-16T14:13:06.629Z,43.12
2018-08-16T14:15:35.492Z,43.03
2018-08-16T14:18:04.536Z,43.42
2018-08-16T14:20:33.416Z,42.94
2018-08-16T14:23:02.269Z,43.41
2018-08-16T14:25:31.106Z,43.70
2018-08-16T14:27:59.997Z,44.17
2018-08-16T14:30:28.858Z,44.03
2018-08-16T14:32:57.696Z,44.30
2018-08-16T14:35:26.555Z,45.26
2018-08-16T14:37:55.636Z,44.76
2018-08-16T14:40:24.882Z,44.46
2018-08-16T14:42:54.017Z,43.85
2018-08-16T14:45:23.155Z,43.57
2018-08-16T14:47:52.311Z,42.95
2018-08-16T14:50:21.122Z,42.65
2018-08-16T14:52:50.255Z,42.98
2018-08-16T14:55:19.125Z,42.84
2018-08-16T14:57:47.998Z,43.29
2018-08-16T15:00:16.869Z,43.82
2018-08-16T15:02:45.734Z,43.50
2018-08-16T15:05:14.668Z,42.02
2018-08-16T15:07:43.526Z,42.23
2018-08-16T15:10:12.372Z,42.52
2018-08-16T15:12:41.231Z,42.16
2018-08-16T15:15:10.213Z,42.01
2018-08-16T15:17:39.184Z,41.93
2018-08-16T15:20:08.382Z,41.27
2018-08-16T15:22:37.469Z,41.71
2018-08-16T15:25:06.643Z,41.75
2018-08-16T15:27:36.172Z,41.89
2018-08-16T15:30:14.625Z,41.92
2018-08-16T15:32:44.740Z,41.65
2018-08-16T15:35:13.597Z,41.99
2018-08-16T15:37:42.524Z,42.57
2018-08-16T15:40:11.377Z,42.73
2018-08-16T15:42:40.239Z,43.90
2018-08-16T15:45:09.131Z,43.63
2018-08-16T15:47:38.091Z,43.83
2018-08-16T15:50:07.086Z,43.85
2018-08-16T15:52:36.143Z,43.82
2018-08-16T15:55:06.109Z,43.36
2018-08-16T15:57:35.243Z,43.07
2018-08-16T16:00:07.645Z,43.03
2018-08-16T16:02:37.350Z,42.95
2018-08-16T16:05:13.633Z,43.24
2018-08-16T16:07:41.276Z,42.69
2018-08-16T16:10:10.520Z,43.39
2018-08-16T16:12:39.411Z,43.48
2018-08-16T16:15:09.446Z,43.50
2018-08-16T16:17:38.339Z,43.72
2018-08-16T16:20:07.318Z,43.99
2018-08-16T16:22:36.794Z,43.51
2018-08-16T16:25:06.193Z,43.55
2018-08-16T16:27:35.462Z,42.96
2018-08-16T16:30:05.384Z,42.54
2018-08-16T16:32:34.238Z,42.14
2018-08-16T16:35:03.176Z,41.89
2018-08-16T16:37:31.995Z,42.20
2018-08-16T16:40:00.871Z,43.02
2018-08-16T16:42:29.742Z,43.58
2018-08-16T16:44:58.662Z,43.79
2018-08-16T16:47:27.442Z,43.48
2018-08-16T16:49:56.325Z,43.49
2018-08-16T16:52:25.127Z,43.57
2018-08-16T16:54:53.985Z,43.68
2018-08-16T16:57:22.812Z,43.58
2018-08-16T16:59:51.723Z,43.59
2018-08-16T17:02:20.569Z,43.69
2018-08-16T17:04:49.442Z,43.87
2018-08-16T17:07:18.385Z,44.59
2018-08-16T17:09:47.162Z,44.21
2018-08-16T17:12:15.982Z,44.04
2018-08-16T17:14:44.943Z,44.03
2018-08-16T17:17:13.781Z,44.68
2018-08-16T17:19:42.641Z,44.47
2018-08-16T17:22:11.536Z,44.90
2018-08-16T17:24:40.361Z,44.67
2018-08-16T17:27:09.284Z,45.25
2018-08-16T17:29:38.126Z,45.22
2018-08-16T17:32:07.695Z,45.52
2018-08-16T17:34:36.488Z,45.29
2018-08-16T17:37:05.339Z,45.52
2018-08-16T17:39:34.197Z,45.62
2018-08-16T17:42:03.103Z,45.87
2018-08-16T17:44:31.976Z,46.36
2018-08-16T17:47:00.812Z,46.21
2018-08-16T17:49:29.658Z,46.66
2018-08-16T17:51:58.595Z,47.03
2018-08-16T17:54:27.367Z,47.21
2018-08-16T17:56:56.243Z,47.21
2018-08-16T17:59:25.133Z,47.24
2018-08-16T18:01:53.958Z,47.65
2018-08-16T18:04:22.780Z,47.39
2018-08-16T18:06:51.608Z,48.07
2018-08-16T18:09:20.475Z,48.29
2018-08-16T18:11:49.308Z,48.71
2018-08-16T18:14:18.139Z,49.45
2018-08-16T18:16:46.983Z,49.84
2018-08-16T18:19:15.860Z,50.24
2018-08-16T18:21:44.728Z,50.57
2018-08-16T18:24:13.628Z,50.96
2018-08-16T18:26:42.396Z,51.69
2018-08-16T18:29:11.317Z,52.14
2018-08-16T18:31:40.153Z,52.57
2018-08-16T18:34:08.993Z,52.97
2018-08-16T18:36:37.907Z,53.42
2018-08-16T18:39:08.255Z,53.92
2018-08-16T18:41:37.564Z,54.15
2018-08-16T18:44:06.542Z,54.76
2018-08-16T18:46:35.417Z,55.04
2018-08-16T18:49:04.261Z,55.93
2018-08-16T18:51:33.108Z,56.04
2018-08-16T18:54:01.948Z,56.24
2018-08-16T18:56:30.845Z,57.25
2018-08-16T18:58:59.711Z,58.25
2018-08-16T19:01:28.543Z,59.00
2018-08-16T19:03:57.408Z,59.99
2018-08-16T19:06:26.243Z,60.76
2018-08-16T19:08:55.084Z,61.63
2018-08-16T19:11:23.965Z,62.11
2018-08-16T19:13:52.844Z,62.63
2018-08-16T19:16:21.886Z,63.15
2018-08-16T19:18:50.731Z,63.84
2018-08-16T19:21:19.594Z,64.28
2018-08-16T19:23:48.431Z,65.22
2018-08-16T19:26:17.369Z,65.26
2018-08-16T19:28:46.181Z,65.54
2018-08-16T19:31:14.995Z,65.50
2018-08-16T19:33:43.886Z,65.54
2018-08-16T19:36:12.833Z,65.79
2018-08-16T19:38:41.927Z,65.91
2018-08-16T19:41:10.965Z,65.95
2018-08-16T19:43:39.747Z,66.19
2018-08-16T19:46:08.590Z,66.20
2018-08-16T19:48:37.994Z,66.41
2018-08-16T19:51:07.242Z,66.73
2018-08-16T19:53:36.034Z,66.84
2018-08-16T19:56:05.145Z,66.77
2018-08-16T19:58:34.248Z,66.80
2018-08-16T20:01:03.214Z,66.83
2018-08-16T20:03:32.003Z,66.92
2018-08-16T20:06:00.865Z,67.03
2018-08-16T20:08:29.782Z,66.77
2018-08-16T20:10:58.643Z,66.98
2018-08-16T20:13:27.413Z,67.00
2018-08-16T20:15:56.258Z,66.92
2018-08-16T20:18:25.137Z,67.30
2018-08-16T20:20:53.974Z,67.55
2018-08-16T20:23:22.819Z,67.54
2018-08-16T20:25:51.692Z,67.62
2018-08-16T20:28:20.558Z,67.63
2018-08-16T20:30:49.373Z,67.45
2018-08-16T20:33:18.260Z,67.92
2018-08-16T20:35:47.085Z,67.80
2018-08-16T20:38:15.966Z,67.35
2018-08-16T20:40:44.854Z,67.47
2018-08-16T20:43:13.715Z,67.49
2018-08-16T20:45:42.565Z,67.46
2018-08-16T20:48:11.434Z,66.46
2018-08-16T20:50:40.296Z,66.91
2018-08-16T20:53:09.188Z,66.85
2018-08-16T20:55:38.046Z,66.74
2018-08-16T20:58:06.893Z,66.86
2018-08-16T21:00:35.814Z,66.69
2018-08-16T21:03:04.620Z,66.92
2018-08-16T21:05:33.480Z,67.27
2018-08-16T21:08:02.334Z,67.28
2018-08-16T21:10:33.208Z,67.57
2018-08-16T21:13:02.067Z,67.53
2018-08-16T21:15:30.929Z,67.73
2018-08-16T21:17:59.821Z,67.88
2018-08-16T21:20:28.709Z,68.04
2018-08-16T21:22:57.574Z,67.74
2018-08-16T21:25:26.409Z,67.70
2018-08-16T21:27:55.345Z,67.97
2018-08-16T21:30:24.193Z,68.32
2018-08-16T21:32:53.014Z,68.58
2018-08-16T21:35:21.876Z,68.51
2018-08-16T21:37:50.806Z,68.69
2018-08-16T21:40:19.695Z,69.15
2018-08-16T21:42:48.505Z,69.15
2018-08-16T21:45:17.415Z,69.29
2018-08-16T21:47:46.350Z,69.35
2018-08-16T21:50:15.295Z,69.54
2018-08-16T21:52:44.121Z,68.97
2018-08-16T21:55:12.971Z,69.16
2018-08-16T21:57:41.861Z,69.28
2018-08-16T22:00:11.416Z,69.11
2018-08-16T22:02:40.262Z,69.01
2018-08-16T22:05:09.126Z,69.03
2018-08-16T22:08:13.809Z,69.23
2018-08-16T22:10:43.828Z,69.14
2018-08-16T22:13:12.678Z,69.51
2018-08-16T22:15:41.541Z,69.33
2018-08-16T22:18:10.663Z,69.52
2018-08-16T22:20:39.481Z,69.91
2018-08-16T22:23:08.339Z,69.64
2018-08-16T22:25:37.190Z,69.94
2018-08-16T22:28:06.037Z,69.17
2018-08-16T22:30:34.887Z,70.00
2018-08-16T22:33:03.751Z,70.22
2018-08-16T22:35:32.575Z,69.19
2018-08-16T22:38:01.443Z,69.95
2018-08-16T22:40:30.288Z,70.04
2018-08-16T22:42:59.216Z,69.83
2018-08-16T22:45:27.996Z,69.95
2018-08-16T22:47:56.999Z,70.14
2018-08-16T22:50:25.856Z,70.10
2018-08-16T22:52:54.695Z,70.30
2018-08-16T22:55:23.564Z,70.73
2018-08-16T22:57:52.402Z,71.07
2018-08-16T23:00:21.263Z,71.56
2018-08-16T23:02:50.130Z,71.58
2018-08-16T23:05:19.029Z,71.44
2018-08-16T23:07:47.834Z,71.65
2018-08-16T23:10:16.701Z,71.55
2018-08-16T23:12:45.535Z,71.45
2018-08-16T23:15:14.408Z,71.30
2018-08-16T23:17:43.261Z,71.30
2018-08-16T23:20:12.101Z,71.21
2018-08-16T23:22:41.332Z,71.20
2018-08-16T23:25:10.200Z,71.60
2018-08-16T23:27:39.131Z,71.53
2018-08-16T23:30:13.117Z,71.44
2018-08-16T23:32:42.341Z,71.88
2018-08-16T23:35:11.515Z,71.95
2018-08-16T23:37:40.368Z,72.37
2018-08-16T23:40:11.242Z,72.50
2018-08-16T23:42:40.352Z,71.19
2018-08-16T23:45:09.846Z,71.60
2018-08-16T23:47:38.750Z,71.74
2018-08-16T23:50:09.447Z,71.96
2018-08-16T23:52:38.358Z,72.03
2018-08-16T23:55:08.318Z,72.10
2018-08-16T23:57:37.176Z,71.86
